Time;durP1;ratioP1;P1;durP2;ratioP2;P2;SDS_P1;SDS_P2;PMS_P1;PMS_P2;Temp;Humidity;BMP_temperature;BMP_pressure;BME280_temperature;BME280_humidity;BME280_pressure;Samples;Min_cycle;Max_cycle;Signal;HPM_P1;HPM_P2
2021/11/08 00:02:31;;;;;;;2.08;1.30;;;;;;;-7.88;93.16;101213.69;5092215;28;20083;-70
2021/11/08 00:04:58;;;;;;;1.23;1.13;;;;;;;-7.96;92.87;101211.78;5092036;28;20143;-70
2021/11/08 00:07:26;;;;;;;1.45;1.35;;;;;;;-7.96;93.23;101211.78;5092497;28;20048;-70
2021/11/08 00:09:53;;;;;;;2.25;1.10;;;;;;;-7.93;92.96;101212.69;5092128;28;20048;-70
2021/11/08 00:12:22;;;;;;;1.98;1.40;;;;;;;-8.11;93.30;101218.09;5092145;28;20044;-70
2021/11/08 00:14:53;;;;;;;1.65;1.10;;;;;;;-8.22;93.30;101218.56;5091978;28;20051;-70
2021/11/08 00:17:33;;;;;;;1.17;1.08;;;;;;;-8.28;94.21;101226.00;5091133;28;20494;-69
2021/11/08 00:20:06;;;;;;;1.52;1.00;;;;;;;-8.16;93.37;101229.72;5091807;28;20466;-70
2021/11/08 00:22:36;;;;;;;1.73;1.30;;;;;;;-8.05;93.09;101230.03;5092253;28;20052;-70
2021/11/08 00:25:04;;;;;;;1.30;1.20;;;;;;;-8.23;93.22;101235.41;5091963;28;20051;-70
2021/11/08 00:27:31;;;;;;;1.30;1.20;;;;;;;-8.31;93.45;101236.84;5091849;28;20048;-70
2021/11/08 00:29:58;;;;;;;1.20;1.10;;;;;;;-8.50;94.55;101235.50;5092120;28;20070;-70
2021/11/08 00:32:25;;;;;;;2.00;1.35;;;;;;;-8.51;94.91;101243.84;5092258;28;20461;-70
2021/11/08 00:34:52;;;;;;;;;;;;;;;-8.47;95.01;101244.81;5092636;28;20048;-70
2021/11/08 00:37:20;;;;;;;1.05;1.00;;;;;;;-8.37;94.89;101241.72;5091967;28;19924;-70
2021/11/08 00:39:47;;;;;;;3.33;1.40;;;;;;;-8.36;94.58;101248.47;5092018;28;20055;-70
2021/11/08 00:42:14;;;;;;;1.20;1.10;;;;;;;-8.15;93.71;101241.53;5091490;28;20060;-70
2021/11/08 00:44:41;;;;;;;3.45;1.77;;;;;;;-8.35;93.73;101245.13;5092124;28;20044;-70
2021/11/08 00:47:08;;;;;;;1.30;1.00;;;;;;;-8.35;94.22;101251.06;5091737;28;20055;-70
2021/11/08 00:49:36;;;;;;;;;;;;;;;-8.56;94.56;101253.78;5092417;28;20438;-69
2021/11/08 00:52:07;;;;;;;2.67;1.20;;;;;;;-8.59;95.02;101251.19;5091340;28;19924;-69
2021/11/08 00:54:35;;;;;;;1.02;1.00;;;;;;;-8.39;94.45;101258.53;5091940;28;20066;-70
2021/11/08 00:57:03;;;;;;;1.77;1.15;;;;;;;-8.44;94.39;101257.53;5091685;28;20041;-70
2021/11/08 00:59:30;;;;;;;1.45;1.00;;;;;;;-8.33;94.22;101258.66;5091641;28;20405;-70
2021/11/08 01:01:58;;;;;;;1.92;1.13;;;;;;;-8.20;93.35;101257.34;5091636;28;20048;-70
2021/11/08 01:04:26;;;;;;;1.75;1.20;;;;;;;-8.34;93.17;101255.28;5091942;28;20056;-70
2021/11/08 01:06:58;;;;;;;2.80;1.35;;;;;;;-8.36;93.48;101258.56;5091284;28;20051;-70
2021/11/08 01:09:27;;;;;;;1.05;1.05;;;;;;;-8.35;93.41;101257.75;5091615;28;20518;-70
2021/11/08 01:11:56;;;;;;;2.90;1.10;;;;;;;-8.47;93.92;101262.50;5091590;28;20055;-70
2021/11/08 01:14:23;;;;;;;1.48;1.13;;;;;;;-8.42;93.57;101251.72;5091182;28;20488;-70
2021/11/08 01:16:55;;;;;;;3.63;1.33;;;;;;;-8.61;94.18;101262.91;5091769;28;20067;-70
2021/11/08 01:19:23;;;;;;;1.45;1.13;;;;;;;-8.49;94.00;101261.56;5091538;28;20125;-70
2021/11/08 01:21:52;;;;;;;2.58;1.55;;;;;;;-8.52;93.54;101254.78;5091242;28;20534;-70
2021/11/08 01:24:20;;;;;;;1.27;1.17;;;;;;;-8.66;94.49;101273.66;5091100;28;20568;-70
2021/11/08 01:26:48;;;;;;;1.30;1.20;;;;;;;-8.70;94.42;101281.97;5092011;28;20047;-70
2021/11/08 01:29:17;;;;;;;1.40;1.30;;;;;;;-8.60;94.38;101277.25;5095198;28;20055;-70
2021/11/08 01:31:44;;;;;;;2.67;1.20;;;;;;;-8.68;94.64;101282.84;5095286;28;20052;-70
2021/11/08 01:34:11;;;;;;;2.88;1.27;;;;;;;-8.69;94.63;101279.47;5094999;28;20135;-70
2021/11/08 01:36:38;;;;;;;3.47;1.20;;;;;;;-8.88;95.29;101279.69;5095462;28;20048;-70
2021/11/08 01:39:18;;;;;;;1.80;1.20;;;;;;;-8.82;94.56;101287.44;5094955;28;20051;-70
2021/11/08 01:41:46;;;;;;;1.42;1.10;;;;;;;-8.77;94.80;101286.78;5094855;28;20052;-70
2021/11/08 01:44:14;;;;;;;1.25;1.10;;;;;;;-8.78;94.43;101297.69;5094655;28;20051;-70
2021/11/08 01:46:42;;;;;;;1.77;1.20;;;;;;;-8.81;94.63;101296.72;5094809;28;20040;-70
2021/11/08 01:49:10;;;;;;;1.23;1.10;;;;;;;-8.91;95.04;101299.75;5094698;28;20134;-70
2021/11/08 01:51:37;;;;;;;2.38;1.10;;;;;;;-8.74;94.50;101298.63;5094970;28;20044;-70
2021/11/08 01:54:06;;;;;;;3.80;1.38;;;;;;;-8.65;94.10;101295.56;5094166;28;20059;-70
2021/11/08 01:56:33;;;;;;;2.45;1.17;;;;;;;-8.71;94.23;101301.25;5095010;28;20086;-70
2021/11/08 01:59:01;;;;;;;1.45;1.10;;;;;;;-8.81;94.39;101302.66;5094571;28;20051;-68
2021/11/08 02:01:28;;;;;;;2.53;1.35;;;;;;;-8.91;94.54;101302.28;5094565;28;20052;-68
2021/11/08 02:03:57;;;;;;;1.10;1.10;;;;;;;-8.74;94.46;101303.69;5094787;28;20044;-70
2021/11/08 02:06:23;;;;;;;2.17;1.13;;;;;;;-8.70;95.18;101305.50;5094602;28;20048;-70
2021/11/08 02:08:51;;;;;;;1.23;1.10;;;;;;;-8.69;94.49;101306.34;5094309;28;20407;-70
2021/11/08 02:11:20;;;;;;;1.40;1.30;;;;;;;-8.86;94.78;101308.31;5094032;28;20113;-70
2021/11/08 02:13:47;;;;;;;6.20;1.45;;;;;;;-8.94;94.98;101312.25;5094324;28;20154;-70
2021/11/08 02:16:15;;;;;;;1.48;1.15;;;;;;;-8.90;95.22;101309.06;5094381;28;20040;-70
2021/11/08 02:18:42;;;;;;;2.60;1.20;;;;;;;-8.76;94.84;101307.81;5094162;28;20142;-70
2021/11/08 02:21:12;;;;;;;2.17;1.08;;;;;;;-8.73;94.74;101307.94;5093668;28;20409;-70
2021/11/08 02:23:40;;;;;;;3.55;1.30;;;;;;;-8.78;94.63;101306.94;5094401;28;20064;-70
2021/11/08 02:26:11;;;;;;;1.00;1.00;;;;;;;-8.79;94.43;101311.09;5093701;28;20506;-70
2021/11/08 02:28:39;;;;;;;1.45;1.10;;;;;;;-8.82;94.81;101316.03;5094048;28;20503;-70
2021/11/08 02:31:06;;;;;;;2.67;1.20;;;;;;;-8.91;94.91;101319.91;5093719;28;20503;-70
2021/11/08 02:33:33;;;;;;;;;;;;;;;-8.97;95.19;101318.06;5094594;28;20136;-70
2021/11/08 02:36:00;;;;;;;1.52;0.88;;;;;;;-8.97;95.28;101315.53;5093447;28;19927;-70
2021/11/08 02:38:29;;;;;;;1.00;0.93;;;;;;;-8.96;95.11;101322.31;5092950;28;20488;-70
2021/11/08 02:41:00;;;;;;;1.25;1.10;;;;;;;-9.02;95.57;101310.34;5093728;28;20054;-70
2021/11/08 02:43:27;;;;;;;1.20;1.10;;;;;;;-9.04;95.58;101317.03;5093767;28;20085;-70
2021/11/08 02:45:58;;;;;;;;;;;;;;;-8.89;95.20;101316.66;5093743;28;20135;-70
2021/11/08 02:48:25;;;;;;;3.88;1.23;;;;;;;-9.01;95.44;101317.13;5094033;28;19920;-70
2021/11/08 02:50:56;;;;;;;1.67;1.08;;;;;;;-8.95;95.21;101315.59;5093583;28;20487;-70
2021/11/08 02:53:25;;;;;;;2.03;1.30;;;;;;;-8.96;94.48;101318.91;5093550;28;20083;-70
2021/11/08 02:55:54;;;;;;;2.90;1.27;;;;;;;-8.88;94.24;101322.56;5093689;28;20044;-69
2021/11/08 02:58:23;;;;;;;1.55;1.10;;;;;;;-8.94;94.32;101320.69;5093168;28;20492;-70
2021/11/08 03:00:53;;;;;;;3.97;1.08;;;;;;;-8.78;93.42;101312.84;5093562;28;20044;-70
2021/11/08 03:03:22;;;;;;;3.08;1.30;;;;;;;-8.87;93.41;101314.19;5093086;28;20450;-70
2021/11/08 03:05:49;;;;;;;1.10;1.10;;;;;;;-8.85;93.10;101312.59;5093479;28;20059;-69
2021/11/08 03:08:16;;;;;;;0.90;0.90;;;;;;;-8.85;93.62;101317.63;5093244;28;20305;-70
2021/11/08 03:10:43;;;;;;;1.30;1.02;;;;;;;-8.86;93.33;101314.25;5093195;28;20050;-70
2021/11/08 03:13:17;;;;;;;3.97;1.02;;;;;;;-8.92;93.55;101315.69;5093146;28;20044;-70
2021/11/08 03:15:58;;;;;;;1.23;1.05;;;;;;;-8.80;92.88;101323.69;5093126;28;20044;-70
2021/11/08 03:18:36;;;;;;;2.80;1.27;;;;;;;-8.95;93.05;101318.97;5093316;28;20412;-70
2021/11/08 03:21:04;;;;;;;1.58;1.15;;;;;;;-9.11;93.60;101322.66;5092993;28;20055;-70
2021/11/08 03:23:31;;;;;;;3.55;1.05;;;;;;;-8.91;93.24;101324.97;5093114;28;20074;-70
2021/11/08 03:26:13;;;;;;;0.88;0.88;;;;;;;-9.02;93.27;101327.13;5092990;28;20277;-70
2021/11/08 03:28:41;;;;;;;2.55;0.82;;;;;;;-9.11;94.14;101324.31;5092855;28;20146;-70
2021/11/08 03:31:10;;;;;;;1.60;1.10;;;;;;;-9.04;93.77;101322.06;5092881;28;20050;-70
2021/11/08 03:33:37;;;;;;;2.38;0.95;;;;;;;-9.10;93.95;101326.88;5093122;28;20056;-70
2021/11/08 03:36:06;;;;;;;1.05;0.95;;;;;;;-9.02;93.08;101324.63;5092404;28;20470;-70
2021/11/08 03:38:37;;;;;;;1.15;1.05;;;;;;;-8.99;92.94;101329.75;5092960;28;20048;-70
2021/11/08 03:41:04;;;;;;;1.38;1.00;;;;;;;-8.99;92.72;101323.06;5092464;28;20048;-70
2021/11/08 03:43:31;;;;;;;1.70;1.00;;;;;;;-8.93;92.69;101331.66;5092563;28;20515;-70
2021/11/08 03:45:59;;;;;;;1.30;1.13;;;;;;;-8.99;93.10;101334.81;5092617;28;20054;-70
2021/11/08 03:48:26;;;;;;;2.30;1.10;;;;;;;-8.99;92.73;101334.81;5092775;28;20047;-70
2021/11/08 03:50:54;;;;;;;3.88;1.20;;;;;;;-9.19;93.53;101339.19;5092289;28;20052;-70
2021/11/08 03:53:22;;;;;;;2.50;1.20;;;;;;;-9.07;93.49;101338.72;5092025;28;20052;-70
2021/11/08 03:55:50;;;;;;;1.13;1.02;;;;;;;-9.19;93.45;101338.34;5092396;28;20549;-70
2021/11/08 03:58:17;;;;;;;1.42;1.20;;;;;;;-9.27;94.43;101349.00;5092354;28;20502;-70
2021/11/08 04:00:44;;;;;;;1.10;1.00;;;;;;;-9.38;94.35;101345.22;5092557;28;20048;-70
2021/11/08 04:03:13;;;;;;;0.95;0.95;;;;;;;-9.39;94.79;101350.22;5092063;28;20510;-70
2021/11/08 04:05:42;;;;;;;2.15;0.90;;;;;;;-9.14;94.13;101355.31;5092545;28;20052;-70
2021/11/08 04:08:13;;;;;;;2.35;1.13;;;;;;;-9.37;94.14;101348.63;5092507;28;20056;-70
2021/11/08 04:10:42;;;;;;;1.20;1.10;;;;;;;-9.46;94.51;101351.66;5092217;28;20055;-70
2021/11/08 04:13:09;;;;;;;2.83;1.20;;;;;;;-9.57;94.44;101347.91;5091951;28;20120;-70
2021/11/08 04:15:39;;;;;;;2.08;1.00;;;;;;;-9.60;95.31;101348.66;5092103;28;20048;-70
2021/11/08 04:18:07;;;;;;;1.48;1.17;;;;;;;-9.70;95.42;101357.53;5092096;28;20436;-70
2021/11/08 04:20:36;;;;;;;1.88;1.20;;;;;;;-9.65;95.68;101350.16;5092017;28;20495;-70
2021/11/08 04:23:04;;;;;;;2.63;1.30;;;;;;;-9.57;95.68;101348.75;5091694;28;20591;-70
2021/11/08 04:25:31;;;;;;;3.13;1.48;;;;;;;-9.64;95.56;101355.22;5091946;28;20404;-70
2021/11/08 04:27:58;;;;;;;0.85;0.85;;;;;;;-9.66;95.50;101349.28;5092124;28;20044;-70
2021/11/08 04:30:27;;;;;;;;;;;;;;;-9.73;95.78;101356.56;5092594;28;20070;-70
2021/11/08 04:33:13;;;;;;;0.93;0.90;;;;;;;-9.78;96.78;101355.53;5092153;28;20121;-70
2021/11/08 04:35:52;;;;;;;1.92;1.30;;;;;;;-9.70;96.21;101364.22;5092059;28;20056;-70
2021/11/08 04:38:32;;;;;;;3.53;1.20;;;;;;;-9.67;95.54;101364.34;5091660;28;20526;-70
2021/11/08 04:41:16;;;;;;;3.38;1.30;;;;;;;-9.63;95.92;101366.19;5091922;28;20078;-70
2021/11/08 04:43:58;;;;;;;1.55;1.30;;;;;;;-9.71;95.42;101363.38;5091638;28;20488;-70
2021/11/08 04:52:14;;;;;;;0.90;0.90;;;;;;;-9.98;96.12;101369.88;5091242;28;20106;-68
2021/11/08 04:54:46;;;;;;;1.25;1.10;;;;;;;-9.88;97.14;101375.31;5091755;28;20052;-70
2021/11/08 04:57:38;;;;;;;3.80;1.20;;;;;;;-9.94;96.49;101379.25;5091443;28;20044;-70
2021/11/08 05:22:25;;;;;;;1.98;1.77;;;;;;;-9.77;95.84;101392.50;5095063;28;20058;-70
2021/11/08 05:28:05;;;;;;;1.20;1.10;;;;;;;-9.61;95.34;101396.44;5081106;28;20040;-70
2021/11/08 05:30:32;;;;;;;3.38;1.20;;;;;;;-9.56;95.43;101389.91;5095129;28;20086;-70
2021/11/08 05:32:59;;;;;;;1.30;1.20;;;;;;;-9.33;94.17;101394.13;5094863;28;20411;-70
2021/11/08 05:35:26;;;;;;;5.13;1.38;;;;;;;-9.46;93.78;101390.31;5095101;28;20048;-70
2021/11/08 05:37:53;;;;;;;1.20;1.10;;;;;;;-9.57;94.16;101393.25;5095249;28;20135;-70
2021/11/08 05:40:27;;;;;;;1.63;1.20;;;;;;;-9.62;94.06;101393.06;5094681;28;20246;-70
2021/11/08 05:42:54;;;;;;;5.05;1.40;;;;;;;-9.67;94.25;101389.53;5094835;28;20055;-70
2021/11/08 05:45:21;;;;;;;1.35;1.13;;;;;;;-9.68;93.95;101392.84;5094578;28;20063;-70
2021/11/08 05:47:48;;;;;;;2.38;1.27;;;;;;;-9.78;94.09;101390.78;5094553;28;20066;-70
2021/11/08 05:50:20;;;;;;;1.00;1.00;;;;;;;-9.90;94.52;101392.03;5094865;28;20055;-70
2021/11/08 05:52:49;;;;;;;1.20;1.10;;;;;;;-9.83;94.98;101394.78;5094565;28;20052;-70
2021/11/08 05:55:16;;;;;;;4.38;1.48;;;;;;;-9.89;94.36;101393.75;5094359;28;20601;-70
2021/11/08 05:57:50;;;;;;;3.88;1.23;;;;;;;-9.90;94.80;101389.50;5094660;28;20044;-70
2021/11/08 06:49:47;;;;;;;3.33;2.00;;;;;;;-9.86;93.86;101420.72;5084321;28;20078;-70
2021/11/08 06:52:15;;;;;;;3.78;2.30;;;;;;;-9.90;93.85;101429.78;5093445;28;20061;-69
2021/11/08 06:54:44;;;;;;;3.35;1.88;;;;;;;-9.92;94.07;101428.88;5093491;28;20048;-70
2021/11/08 06:57:13;;;;;;;6.15;1.85;;;;;;;-9.89;94.50;101430.66;5093476;28;20097;-70
2021/11/08 06:59:41;;;;;;;7.25;2.00;;;;;;;-9.88;93.71;101442.47;5093339;28;20143;-70
2021/11/08 07:02:10;;;;;;;5.07;2.30;;;;;;;-9.90;94.13;101449.09;5093136;28;20051;-70
2021/11/08 07:04:37;;;;;;;10.23;2.20;;;;;;;-9.89;95.13;101445.75;5093519;28;20048;-69
2021/11/08 07:07:06;;;;;;;14.70;2.45;;;;;;;-9.87;94.93;101444.16;5093007;28;20406;-70
2021/11/08 07:09:33;;;;;;;6.90;2.13;;;;;;;-9.93;94.32;101444.78;5093207;28;20052;-70
2021/11/08 07:12:00;;;;;;;11.38;2.00;;;;;;;-9.91;94.64;101442.34;5093299;28;20048;-70
2021/11/08 07:14:26;;;;;;;4.43;2.30;;;;;;;-9.97;94.12;101450.50;5093411;28;20413;-70
2021/11/08 07:16:54;;;;;;;4.10;1.85;;;;;;;-9.96;93.99;101442.16;5093347;28;20048;-70
2021/11/08 07:19:22;;;;;;;5.00;1.95;;;;;;;-9.94;94.13;101442.19;5093143;28;20043;-70
2021/11/08 07:21:49;;;;;;;7.28;1.92;;;;;;;-9.98;94.16;101446.25;5093043;28;20054;-70
2021/11/08 07:24:17;;;;;;;3.10;1.35;;;;;;;-9.96;94.35;101453.91;5092826;28;20138;-70
2021/11/08 07:26:45;;;;;;;12.00;1.98;;;;;;;-9.96;94.60;101452.22;5092789;28;20048;-70
2021/11/08 07:29:14;;;;;;;4.35;1.52;;;;;;;-9.94;94.45;101450.63;5092890;28;20190;-70
2021/11/08 07:31:41;;;;;;;8.38;1.80;;;;;;;-9.90;94.59;101451.59;5093119;28;20082;-70
2021/11/08 07:34:08;;;;;;;11.45;1.80;;;;;;;-9.84;94.75;101449.31;5092843;28;20044;-70
2021/11/08 07:36:37;;;;;;;4.40;1.48;;;;;;;-9.78;95.09;101448.72;5093024;28;20055;-70
2021/11/08 07:39:06;;;;;;;2.47;1.50;;;;;;;-9.75;94.60;101456.38;5092675;28;20048;-70
2021/11/08 07:41:33;;;;;;;4.63;1.60;;;;;;;-9.70;94.37;101455.75;5092911;28;20048;-70
2021/11/08 07:44:01;;;;;;;2.38;1.38;;;;;;;-9.54;94.43;101459.72;5092125;28;20411;-70
2021/11/08 07:46:27;;;;;;;4.30;1.48;;;;;;;-9.54;93.88;101457.19;5092818;28;20040;-70
2021/11/08 07:48:54;;;;;;;2.38;1.58;;;;;;;-9.54;93.51;101467.28;5092333;28;20055;-70
2021/11/08 07:51:22;;;;;;;5.15;1.70;;;;;;;-9.58;93.46;101465.47;5092167;28;20408;-70
2021/11/08 07:53:50;;;;;;;2.17;1.50;;;;;;;-9.54;93.11;101472.31;5092219;28;20411;-70
2021/11/08 07:56:18;;;;;;;2.85;1.60;;;;;;;-9.57;93.05;101471.34;5092111;28;20526;-70
2021/11/08 07:58:45;;;;;;;6.38;2.00;;;;;;;-9.51;93.59;101466.53;5092620;28;20051;-70
2021/11/08 08:01:12;;;;;;;7.43;2.33;;;;;;;-9.34;94.31;101469.69;5092104;28;20462;-70
2021/11/08 08:03:39;;;;;;;8.25;2.40;;;;;;;-9.36;94.20;101473.81;5092551;28;20147;-70
2021/11/08 08:06:07;;;;;;;8.25;2.08;;;;;;;-9.36;94.26;101474.66;5092259;28;20052;-70
2021/11/08 08:08:35;;;;;;;7.80;2.53;;;;;;;-9.33;93.75;101474.78;5092100;28;20040;-70
2021/11/08 08:11:04;;;;;;;4.53;1.73;;;;;;;-9.24;93.70;101476.81;5092277;28;20086;-70
2021/11/08 08:13:33;;;;;;;7.75;2.08;;;;;;;-9.26;94.12;101483.44;5092372;28;20056;-70
2021/11/08 08:16:02;;;;;;;10.02;2.00;;;;;;;-9.28;93.84;101493.44;5091797;28;20044;-70
2021/11/08 08:18:32;;;;;;;2.05;1.75;;;;;;;-9.24;93.84;101500.34;5091947;28;20051;-70
2021/11/08 08:20:59;;;;;;;5.32;1.83;;;;;;;-9.22;93.83;101495.38;5091922;28;20059;-70
2021/11/08 08:23:27;;;;;;;6.53;1.85;;;;;;;-9.10;93.92;101500.00;5092307;28;20177;-70
2021/11/08 08:25:54;;;;;;;9.98;3.10;;;;;;;-8.69;93.19;101488.84;5092186;28;20048;-70
2021/11/08 08:28:23;;;;;;;11.73;2.60;;;;;;;-8.73;93.52;101491.22;5091640;28;20058;-70
2021/11/08 08:30:50;;;;;;;4.97;1.98;;;;;;;-8.42;92.63;101488.97;5092224;28;20137;-70
2021/11/08 08:33:17;;;;;;;;;;;;;;;-8.17;92.98;101492.25;5092028;28;20052;-70
2021/11/08 08:35:44;;;;;;;;;;;;;;;-8.03;93.79;101498.63;5092387;28;20379;-70
2021/11/08 08:38:13;;;;;;;5.10;1.63;;;;;;;-8.03;93.49;101493.59;5094673;28;20010;-70
2021/11/08 08:40:40;;;;;;;2.38;1.45;;;;;;;-7.99;93.74;101497.06;5096281;28;20142;-70
2021/11/08 08:43:07;;;;;;;3.95;1.73;;;;;;;-7.99;94.19;101499.59;5095625;28;20044;-70
2021/11/08 08:45:38;;;;;;;6.78;2.63;;;;;;;-7.86;94.52;101493.25;5095952;28;20508;-70
2021/11/08 08:48:06;;;;;;;7.07;2.50;;;;;;;-7.67;95.03;101491.38;5095672;28;20384;-70
2021/11/08 08:50:33;;;;;;;27.95;9.15;;;;;;;-7.76;95.24;101496.13;5095890;28;20063;-70
2021/11/08 08:53:00;;;;;;;16.95;3.72;;;;;;;-7.67;95.17;101504.00;5095353;28;20059;-70
2021/11/08 08:55:28;;;;;;;6.85;2.83;;;;;;;-7.39;94.60;101497.28;5095757;28;20047;-69
2021/11/08 08:57:56;;;;;;;7.78;2.63;;;;;;;-6.91;93.83;101486.88;5095735;28;20044;-70
2021/11/08 09:00:25;;;;;;;4.80;2.00;;;;;;;-6.56;92.21;101486.97;5095418;28;20063;-70
2021/11/08 09:02:55;;;;;;;8.18;2.13;;;;;;;-6.68;91.90;101494.22;5095670;28;20054;-70
2021/11/08 09:05:23;;;;;;;6.47;2.25;;;;;;;-6.80;91.33;101489.69;5095708;28;20048;-70
2021/11/08 09:07:50;;;;;;;10.77;2.00;;;;;;;-6.80;91.00;101499.81;5095731;28;20050;-70
2021/11/08 09:10:17;;;;;;;3.97;2.00;;;;;;;-6.85;91.51;101502.22;5095621;28;20059;-70
2021/11/08 09:12:44;;;;;;;5.63;1.88;;;;;;;-6.57;90.19;101510.56;5095543;28;20048;-70
2021/11/08 09:15:11;;;;;;;7.05;1.70;;;;;;;-6.56;89.59;101504.69;5095517;28;20048;-70
2021/11/08 09:17:38;;;;;;;12.48;1.67;;;;;;;-6.59;89.53;101509.66;5095680;28;20044;-70
2021/11/08 09:20:09;;;;;;;2.92;1.60;;;;;;;-6.54;89.43;101514.88;5095102;28;20059;-70
2021/11/08 09:22:37;;;;;;;4.63;1.95;;;;;;;-6.63;89.81;101506.22;5095315;28;20067;-70
2021/11/08 09:25:04;;;;;;;3.20;2.03;;;;;;;-6.44;89.27;101502.47;5095149;28;20052;-70
2021/11/08 09:27:31;;;;;;;;;;;;;;;-6.47;89.06;101502.41;5095910;28;20048;-70
2021/11/08 09:29:58;;;;;;;3.13;1.65;;;;;;;-6.42;89.94;101505.03;5095210;28;19920;-70
2021/11/08 09:32:24;;;;;;;10.93;1.95;;;;;;;-5.56;90.36;101497.84;5095407;28;20048;-70
2021/11/08 09:34:52;;;;;;;7.85;2.05;;;;;;;-5.07;88.60;101498.06;5095107;28;20169;-70
2021/11/08 09:37:20;;;;;;;;;;;;;;;-4.54;88.75;101499.97;5095398;28;20139;-70
2021/11/08 09:39:48;;;;;;;11.27;2.50;;;;;;;-4.44;87.45;101500.16;5094991;28;19970;-70
2021/11/08 09:42:17;;;;;;;9.45;2.90;;;;;;;-4.70;87.35;101497.13;5094614;28;20406;-70
2021/11/08 09:44:45;;;;;;;9.88;2.90;;;;;;;-4.99;87.88;101494.00;5094751;28;20410;-70
2021/11/08 09:47:15;;;;;;;4.70;2.50;;;;;;;-5.22;88.80;101496.06;5094912;28;20044;-70
2021/11/08 09:49:49;;;;;;;4.68;2.35;;;;;;;-5.30;89.84;101497.56;5094529;28;20453;-70
2021/11/08 09:52:17;;;;;;;6.25;2.10;;;;;;;-5.26;89.79;101502.75;5094674;28;20058;-69
2021/11/08 09:54:46;;;;;;;5.88;1.83;;;;;;;-5.18;89.58;101497.00;5095068;28;20048;-70
2021/11/08 09:57:13;;;;;;;6.40;2.08;;;;;;;-5.07;88.62;101495.53;5094691;28;20048;-70
2021/11/08 09:59:40;;;;;;;;;;;;;;;-5.12;88.99;101495.41;5095411;28;20052;-70
2021/11/08 10:02:14;;;;;;;2.47;1.80;;;;;;;-4.96;89.13;101501.66;5094306;28;19931;-70
2021/11/08 10:04:42;;;;;;;3.53;1.70;;;;;;;-4.57;87.92;101503.31;5094468;28;20609;-70
2021/11/08 10:07:09;;;;;;;3.22;1.92;;;;;;;-4.07;86.00;101505.88;5094538;28;20411;-70
2021/11/08 10:09:37;;;;;;;4.93;1.95;;;;;;;-3.83;84.94;101507.13;5094712;28;20048;-70
2021/11/08 10:12:09;;;;;;;4.90;2.10;;;;;;;-4.02;84.61;101511.06;5094068;28;20048;-70
2021/11/08 10:14:37;;;;;;;5.47;1.55;;;;;;;-4.20;85.76;101504.81;5094402;28;20491;-70
2021/11/08 10:17:04;;;;;;;3.70;2.00;;;;;;;-4.24;86.17;101500.53;5094254;28;20052;-70
2021/11/08 10:19:35;;;;;;;4.70;1.80;;;;;;;-4.30;86.08;101504.63;5094522;28;20047;-70
2021/11/08 10:22:04;;;;;;;3.42;1.55;;;;;;;-4.12;85.51;101501.56;5094028;28;20138;-70
2021/11/08 10:24:34;;;;;;;3.80;1.67;;;;;;;-3.86;84.71;101497.75;5094048;28;20058;-70
2021/11/08 10:27:03;;;;;;;2.20;1.60;;;;;;;-3.41;83.02;101499.28;5094373;28;20048;-70
2021/11/08 10:29:32;;;;;;;4.20;2.00;;;;;;;-3.04;81.45;101498.94;5094018;28;20416;-70
2021/11/08 10:32:03;;;;;;;7.07;1.83;;;;;;;-3.20;82.21;101502.97;5093937;28;20051;-70
2021/11/08 10:34:30;;;;;;;4.70;1.80;;;;;;;-3.29;82.72;101504.56;5093982;28;20518;-70
2021/11/08 10:37:01;;;;;;;3.83;1.48;;;;;;;-3.40;83.28;101498.44;5094109;28;20044;-70
2021/11/08 10:39:29;;;;;;;2.13;1.30;;;;;;;-3.26;84.38;101493.56;5093924;28;20186;-70
2021/11/08 10:41:57;;;;;;;1.90;1.20;;;;;;;-3.44;84.24;101501.81;5093605;28;20048;-70
2021/11/08 10:44:24;;;;;;;2.70;1.40;;;;;;;-3.44;84.46;101500.91;5093808;28;20044;-70
2021/11/08 10:46:59;;;;;;;3.17;1.00;;;;;;;-3.36;84.79;101490.03;5094034;28;20051;-70
2021/11/08 10:49:29;;;;;;;2.17;1.20;;;;;;;-3.08;84.50;101496.34;5093621;28;20411;-70
2021/11/08 10:51:58;;;;;;;1.27;0.95;;;;;;;-2.92;84.33;101497.38;5093511;28;20048;-70
2021/11/08 10:54:27;;;;;;;2.88;1.20;;;;;;;-2.64;82.49;101500.28;5093452;28;20088;-70
2021/11/08 10:56:57;;;;;;;1.10;0.98;;;;;;;-2.67;83.88;101497.69;5093738;28;20063;-70
2021/11/08 10:59:28;;;;;;;1.25;1.00;;;;;;;-2.61;83.45;101495.19;5092755;28;20574;-70
2021/11/08 11:01:59;;;;;;;1.40;0.90;;;;;;;-2.57;82.97;101493.53;5093239;28;20540;-70
2021/11/08 11:04:32;;;;;;;2.50;0.82;;;;;;;-2.56;83.59;101496.09;5093756;28;20056;-70
2021/11/08 11:07:00;;;;;;;1.02;0.90;;;;;;;-2.69;84.08;101496.81;5093533;28;20087;-70
2021/11/08 11:09:29;;;;;;;0.88;0.85;;;;;;;-2.81;84.58;101494.13;5093468;28;20048;-70
2021/11/08 11:12:09;;;;;;;6.68;1.13;;;;;;;-2.89;85.07;101492.34;5093278;28;20055;-70
2021/11/08 11:14:37;;;;;;;1.90;0.90;;;;;;;-2.87;85.09;101500.84;5093444;28;20085;-70
2021/11/08 11:17:09;;;;;;;1.75;0.90;;;;;;;-2.82;84.78;101500.06;5092914;28;20513;-70
2021/11/08 11:19:37;;;;;;;3.25;1.00;;;;;;;-2.27;82.41;101490.44;5093462;28;20406;-70
2021/11/08 11:22:08;;;;;;;0.80;0.80;;;;;;;-2.35;82.38;101486.97;5092743;28;20058;-70
2021/11/08 11:24:43;;;;;;;1.98;1.10;;;;;;;-2.59;82.20;101490.97;5093322;28;20155;-70
2021/11/08 11:27:16;;;;;;;0.80;0.80;;;;;;;-2.46;81.71;101492.81;5093005;28;20048;-70
2021/11/08 11:29:43;;;;;;;1.88;0.80;;;;;;;-2.49;81.52;101494.47;5093069;28;20048;-70
2021/11/08 11:32:25;;;;;;;4.72;0.82;;;;;;;-2.47;81.74;101495.34;5092878;28;20297;-70
2021/11/08 11:34:54;;;;;;;2.88;1.00;;;;;;;-2.53;81.83;101488.50;5093177;28;20131;-70
2021/11/08 11:37:23;;;;;;;1.00;0.90;;;;;;;-2.64;82.21;101490.09;5092793;28;20059;-70
2021/11/08 11:40:02;;;;;;;1.42;0.73;;;;;;;-2.69;83.40;101486.63;5092770;28;20051;-70
2021/11/08 11:42:29;;;;;;;3.47;0.93;;;;;;;-2.81;83.81;101496.66;5092420;28;20058;-69
2021/11/08 11:45:02;;;;;;;4.25;0.90;;;;;;;-2.70;84.37;101493.41;5092612;28;20048;-70
2021/11/08 11:47:31;;;;;;;1.63;0.85;;;;;;;-2.69;84.56;101502.75;5092672;28;20048;-69
2021/11/08 11:49:58;;;;;;;2.30;0.95;;;;;;;-2.84;85.29;101502.56;5092663;28;20044;-69
2021/11/08 11:52:25;;;;;;;;;;;;;;;-2.66;85.20;101517.22;5092765;28;20063;-69
2021/11/08 11:54:52;;;;;;;1.70;0.98;;;;;;;-2.63;84.67;101504.50;5092763;28;19920;-69
2021/11/08 11:57:19;;;;;;;3.58;0.88;;;;;;;-2.67;85.00;101516.38;5092206;28;20513;-70
2021/11/08 11:59:48;;;;;;;2.28;0.80;;;;;;;-2.65;85.04;101514.72;5092283;28;20506;-69
2021/11/08 12:02:17;;;;;;;4.43;1.13;;;;;;;-2.28;84.42;101515.09;5092069;28;20048;-69
2021/11/08 12:04:46;;;;;;;3.40;0.90;;;;;;;-2.25;83.74;101514.25;5092549;28;20059;-69
2021/11/08 12:07:14;;;;;;;1.50;0.93;;;;;;;-2.17;83.71;101517.75;5092069;28;20059;-70
2021/11/08 12:09:42;;;;;;;0.70;0.70;;;;;;;-2.20;83.96;101517.72;5092107;28;20043;-70
2021/11/08 12:12:09;;;;;;;3.20;1.00;;;;;;;-1.70;82.92;101516.44;5091734;28;20055;-70
2021/11/08 12:14:37;;;;;;;2.08;0.70;;;;;;;-1.67;81.82;101516.44;5092183;28;20048;-69
2021/11/08 12:17:06;;;;;;;1.50;1.15;;;;;;;-1.32;80.72;101509.88;5091896;28;20052;-69
2021/11/08 12:19:35;;;;;;;0.98;0.65;;;;;;;-1.75;82.02;101513.84;5092378;28;20060;-69
2021/11/08 12:22:14;;;;;;;0.95;0.80;;;;;;;-2.11;83.06;101514.38;5092109;28;20082;-69
2021/11/08 12:24:42;;;;;;;1.30;0.80;;;;;;;-2.31;84.18;101514.19;5092408;28;20101;-69
2021/11/08 12:27:12;;;;;;;1.67;1.05;;;;;;;-2.54;85.02;101519.91;5091779;28;20496;-69
2021/11/08 12:29:50;;;;;;;2.17;0.90;;;;;;;-2.78;85.90;101522.16;5091890;28;20510;-69
2021/11/08 12:32:17;;;;;;;1.50;0.82;;;;;;;-2.93;86.52;101523.72;5092091;28;20389;-70
2021/11/08 12:34:46;;;;;;;5.57;1.00;;;;;;;-3.04;87.15;101530.34;5092274;28;20047;-69
2021/11/08 12:37:16;;;;;;;2.30;0.98;;;;;;;-3.01;86.56;101527.81;5091741;28;20050;-70
2021/11/08 12:39:44;;;;;;;2.10;1.35;;;;;;;-3.11;86.78;101538.72;5091874;28;20045;-69
2021/11/08 12:42:13;;;;;;;3.53;1.73;;;;;;;-3.27;87.34;101545.28;5091610;28;20040;-69
2021/11/08 12:44:43;;;;;;;2.83;1.60;;;;;;;-3.37;88.03;101544.28;5091906;28;20098;-69
2021/11/08 12:47:11;;;;;;;1.27;0.98;;;;;;;-3.33;87.93;101545.22;5091466;28;20050;-70
2021/11/08 12:49:41;;;;;;;1.58;0.90;;;;;;;-3.36;87.47;101552.81;5092055;28;20059;-69
2021/11/08 12:52:14;;;;;;;2.75;1.50;;;;;;;-3.40;87.73;101545.94;5091593;28;20105;-69
2021/11/08 12:54:49;;;;;;;2.53;0.88;;;;;;;-3.37;87.49;101549.38;5091683;28;20495;-70
2021/11/08 12:57:18;;;;;;;1.85;1.00;;;;;;;-3.34;87.57;101553.66;5091528;28;20056;-69